sensor_id;sensor_type;location;lat;lon;timestamp;pressure;altitude;pressure_sealevel;temperature;humidity
8894;BME280;4483;48.622;9.230;2022-12-18T00:01:49;99047.16;;;-9.59;84.43
8894;BME280;4483;48.622;9.230;2022-12-18T00:04:19;99045.34;;;-9.61;84.24
8894;BME280;4483;48.622;9.230;2022-12-18T00:06:46;99049.31;;;-9.65;83.84
8894;BME280;4483;48.622;9.230;2022-12-18T00:09:13;99057.50;;;-9.67;83.76
8894;BME280;4483;48.622;9.230;2022-12-18T00:11:41;99068.13;;;-9.70;83.84
8894;BME280;4483;48.622;9.230;2022-12-18T00:14:09;99066.44;;;-9.71;83.42
8894;BME280;4483;48.622;9.230;2022-12-18T00:16:37;99064.78;;;-9.70;83.93
8894;BME280;4483;48.622;9.230;2022-12-18T00:19:04;99063.16;;;-9.70;84.29
8894;BME280;4483;48.622;9.230;2022-12-18T00:21:32;99054.72;;;-9.72;84.04
8894;BME280;4483;48.622;9.230;2022-12-18T00:23:59;99057.13;;;-9.73;83.50
8894;BME280;4483;48.622;9.230;2022-12-18T00:26:27;99056.25;;;-9.74;83.76
8894;BME280;4483;48.622;9.230;2022-12-18T00:28:58;99055.31;;;-9.76;83.44
8894;BME280;4483;48.622;9.230;2022-12-18T00:31:26;99063.66;;;-9.75;83.71
8894;BME280;4483;48.622;9.230;2022-12-18T00:33:54;99059.47;;;-9.76;82.89
8894;BME280;4483;48.622;9.230;2022-12-18T00:36:23;99049.41;;;-9.78;83.37
8894;BME280;4483;48.622;9.230;2022-12-18T00:38:50;99059.47;;;-9.76;83.38
8894;BME280;4483;48.622;9.230;2022-12-18T00:41:18;99058.66;;;-9.75;83.35
8894;BME280;4483;48.622;9.230;2022-12-18T00:44:00;99072.69;;;-9.77;82.45
8894;BME280;4483;48.622;9.230;2022-12-18T00:46:26;99072.59;;;-9.79;82.44
8894;BME280;4483;48.622;9.230;2022-12-18T00:48:53;99075.00;;;-9.80;82.92
8894;BME280;4483;48.622;9.230;2022-12-18T00:51:20;99073.97;;;-9.84;82.47
8894;BME280;4483;48.622;9.230;2022-12-18T00:53:46;99069.41;;;-9.91;82.73
8894;BME280;4483;48.622;9.230;2022-12-18T00:56:13;99071.91;;;-9.91;82.91
8894;BME280;4483;48.622;9.230;2022-12-18T00:58:39;99069.13;;;-9.95;81.98
8894;BME280;4483;48.622;9.230;2022-12-18T01:01:08;99061.41;;;-10.00;82.78
8894;BME280;4483;48.622;9.230;2022-12-18T01:03:34;99057.97;;;-10.02;82.82
8894;BME280;4483;48.622;9.230;2022-12-18T01:06:05;99072.03;;;-10.02;82.29
8894;BME280;4483;48.622;9.230;2022-12-18T01:08:32;99073.38;;;-10.09;81.97
8894;BME280;4483;48.622;9.230;2022-12-18T01:10:59;99077.63;;;-10.06;82.60
8894;BME280;4483;48.622;9.230;2022-12-18T01:13:26;99068.38;;;-10.09;81.74
8894;BME280;4483;48.622;9.230;2022-12-18T01:15:52;99077.47;;;-10.09;82.29
8894;BME280;4483;48.622;9.230;2022-12-18T01:18:20;99069.91;;;-10.11;81.15
8894;BME280;4483;48.622;9.230;2022-12-18T01:20:47;99063.97;;;-10.13;82.33
8894;BME280;4483;48.622;9.230;2022-12-18T01:23:14;99064.41;;;-10.20;81.52
8894;BME280;4483;48.622;9.230;2022-12-18T01:25:40;99063.44;;;-10.22;81.83
8894;BME280;4483;48.622;9.230;2022-12-18T01:28:07;99072.25;;;-10.27;81.14
8894;BME280;4483;48.622;9.230;2022-12-18T01:30:33;99070.53;;;-10.28;81.61
8894;BME280;4483;48.622;9.230;2022-12-18T01:33:00;99079.47;;;-10.31;80.70
8894;BME280;4483;48.622;9.230;2022-12-18T01:35:28;99063.13;;;-10.41;80.80
8894;BME280;4483;48.622;9.230;2022-12-18T01:37:55;99077.81;;;-10.46;80.25
8894;BME280;4483;48.622;9.230;2022-12-18T01:40:22;99072.69;;;-10.47;81.41
8894;BME280;4483;48.622;9.230;2022-12-18T01:42:50;99066.09;;;-10.47;81.94
8894;BME280;4483;48.622;9.230;2022-12-18T01:45:26;99065.22;;;-10.47;81.71
8894;BME280;4483;48.622;9.230;2022-12-18T01:47:54;99075.19;;;-10.47;80.09
8894;BME280;4483;48.622;9.230;2022-12-18T01:50:23;99080.88;;;-10.50;80.02
8894;BME280;4483;48.622;9.230;2022-12-18T01:52:55;99089.97;;;-10.50;80.82
8894;BME280;4483;48.622;9.230;2022-12-18T01:55:24;99090.75;;;-10.51;80.23
8894;BME280;4483;48.622;9.230;2022-12-18T01:57:54;99083.94;;;-10.54;80.85
8894;BME280;4483;48.622;9.230;2022-12-18T02:00:22;99075.59;;;-10.54;80.89
8894;BME280;4483;48.622;9.230;2022-12-18T02:02:49;99071.41;;;-10.55;80.85
8894;BME280;4483;48.622;9.230;2022-12-18T02:05:17;99069.75;;;-10.55;81.05
8894;BME280;4483;48.622;9.230;2022-12-18T02:07:52;99063.16;;;-10.54;81.26
8894;BME280;4483;48.622;9.230;2022-12-18T02:10:27;99059.41;;;-10.48;80.83
8894;BME280;4483;48.622;9.230;2022-12-18T02:13:02;99062.56;;;-10.50;80.64
8894;BME280;4483;48.622;9.230;2022-12-18T02:15:38;99080.97;;;-10.48;81.30
8894;BME280;4483;48.622;9.230;2022-12-18T02:18:08;99080.88;;;-10.50;79.62
8894;BME280;4483;48.622;9.230;2022-12-18T02:20:41;99071.84;;;-10.48;80.86
8894;BME280;4483;48.622;9.230;2022-12-18T02:23:19;99071.75;;;-10.49;80.95
8894;BME280;4483;48.622;9.230;2022-12-18T02:26:06;99069.38;;;-10.48;80.00
8894;BME280;4483;48.622;9.230;2022-12-18T02:28:38;99067.13;;;-10.43;80.10
8894;BME280;4483;48.622;9.230;2022-12-18T02:31:11;99072.91;;;-10.44;79.60
8894;BME280;4483;48.622;9.230;2022-12-18T02:33:40;99065.22;;;-10.47;80.03
8894;BME280;4483;48.622;9.230;2022-12-18T02:36:08;99073.31;;;-10.51;79.28
8894;BME280;4483;48.622;9.230;2022-12-18T02:38:36;99083.06;;;-10.54;80.37
8894;BME280;4483;48.622;9.230;2022-12-18T02:41:05;99081.34;;;-10.55;80.16
8894;BME280;4483;48.622;9.230;2022-12-18T02:43:32;99087.19;;;-10.55;80.44
8894;BME280;4483;48.622;9.230;2022-12-18T02:46:00;99096.38;;;-10.54;79.75
8894;BME280;4483;48.622;9.230;2022-12-18T02:48:47;99102.25;;;-10.53;80.45
8894;BME280;4483;48.622;9.230;2022-12-18T02:51:21;99104.59;;;-10.55;79.47
8894;BME280;4483;48.622;9.230;2022-12-18T02:53:53;99106.25;;;-10.55;80.57
8894;BME280;4483;48.622;9.230;2022-12-18T02:56:26;99107.00;;;-10.56;79.54
8894;BME280;4483;48.622;9.230;2022-12-18T02:58:59;99106.06;;;-10.58;79.21
8894;BME280;4483;48.622;9.230;2022-12-18T03:01:32;99104.16;;;-10.62;79.59
8894;BME280;4483;48.622;9.230;2022-12-18T03:04:04;99103.97;;;-10.65;78.57
8894;BME280;4483;48.622;9.230;2022-12-18T03:06:34;99101.28;;;-10.68;78.69
8894;BME280;4483;48.622;9.230;2022-12-18T03:09:06;99090.19;;;-10.73;79.24
8894;BME280;4483;48.622;9.230;2022-12-18T03:11:38;99097.56;;;-10.75;79.11
8894;BME280;4483;48.622;9.230;2022-12-18T03:14:26;99087.41;;;-10.78;78.84
8894;BME280;4483;48.622;9.230;2022-12-18T03:16:58;99088.19;;;-10.79;78.99
8894;BME280;4483;48.622;9.230;2022-12-18T03:19:27;99089.72;;;-10.81;78.46
8894;BME280;4483;48.622;9.230;2022-12-18T03:21:57;99102.91;;;-10.82;80.36
8894;BME280;4483;48.622;9.230;2022-12-18T03:24:26;99100.34;;;-10.83;79.31
8894;BME280;4483;48.622;9.230;2022-12-18T03:27:00;99108.69;;;-10.83;79.66
8894;BME280;4483;48.622;9.230;2022-12-18T03:29:31;99109.66;;;-10.81;80.02
8894;BME280;4483;48.622;9.230;2022-12-18T03:32:03;99105.41;;;-10.82;79.07
8894;BME280;4483;48.622;9.230;2022-12-18T03:34:34;99112.97;;;-10.80;79.98
8894;BME280;4483;48.622;9.230;2022-12-18T03:37:02;99118.63;;;-10.83;79.42
8894;BME280;4483;48.622;9.230;2022-12-18T03:39:29;99115.00;;;-10.88;78.47
8894;BME280;4483;48.622;9.230;2022-12-18T03:42:05;99111.66;;;-10.88;79.02
8894;BME280;4483;48.622;9.230;2022-12-18T03:44:39;99120.56;;;-10.92;78.40
8894;BME280;4483;48.622;9.230;2022-12-18T03:47:13;99114.72;;;-10.92;78.81
8894;BME280;4483;48.622;9.230;2022-12-18T03:49:45;99113.97;;;-10.91;79.04
8894;BME280;4483;48.622;9.230;2022-12-18T03:52:19;99106.50;;;-10.91;78.27
8894;BME280;4483;48.622;9.230;2022-12-18T03:54:47;99113.75;;;-10.94;78.64
8894;BME280;4483;48.622;9.230;2022-12-18T03:57:17;99116.16;;;-10.96;79.11
8894;BME280;4483;48.622;9.230;2022-12-18T03:59:46;99122.09;;;-10.94;78.08
8894;BME280;4483;48.622;9.230;2022-12-18T04:02:16;99114.44;;;-10.97;78.43
8894;BME280;4483;48.622;9.230;2022-12-18T04:04:44;99090.69;;;-11.05;78.76
8894;BME280;4483;48.622;9.230;2022-12-18T04:07:13;99096.63;;;-11.03;78.28
8894;BME280;4483;48.622;9.230;2022-12-18T04:09:41;99113.75;;;-11.07;79.42
8894;BME280;4483;48.622;9.230;2022-12-18T04:12:10;99115.09;;;-11.12;78.71
8894;BME280;4483;48.622;9.230;2022-12-18T04:14:38;99124.09;;;-11.14;77.96
8894;BME280;4483;48.622;9.230;2022-12-18T04:17:04;99123.69;;;-11.20;78.85
8894;BME280;4483;48.622;9.230;2022-12-18T04:19:31;99121.78;;;-11.24;79.00
8894;BME280;4483;48.622;9.230;2022-12-18T04:21:57;99114.91;;;-11.28;77.57
8894;BME280;4483;48.622;9.230;2022-12-18T04:24:24;99119.88;;;-11.28;79.10
8894;BME280;4483;48.622;9.230;2022-12-18T04:26:51;99114.69;;;-11.31;77.54
8894;BME280;4483;48.622;9.230;2022-12-18T04:29:17;99110.28;;;-11.35;78.45
8894;BME280;4483;48.622;9.230;2022-12-18T04:31:45;99118.31;;;-11.40;77.46
8894;BME280;4483;48.622;9.230;2022-12-18T04:34:12;99112.28;;;-11.43;77.12
8894;BME280;4483;48.622;9.230;2022-12-18T04:36:38;99126.34;;;-11.44;77.45
8894;BME280;4483;48.622;9.230;2022-12-18T04:39:05;99124.63;;;-11.45;79.01
8894;BME280;4483;48.622;9.230;2022-12-18T04:41:31;99118.13;;;-11.43;77.47
8894;BME280;4483;48.622;9.230;2022-12-18T04:43:58;99132.38;;;-11.40;77.83
8894;BME280;4483;48.622;9.230;2022-12-18T04:46:25;99127.50;;;-11.39;78.85
8894;BME280;4483;48.622;9.230;2022-12-18T04:48:53;99134.19;;;-11.38;78.70
8894;BME280;4483;48.622;9.230;2022-12-18T04:51:19;99126.53;;;-11.41;78.21
8894;BME280;4483;48.622;9.230;2022-12-18T04:53:46;99109.59;;;-11.46;77.43
8894;BME280;4483;48.622;9.230;2022-12-18T04:56:14;99115.91;;;-11.51;77.55
8894;BME280;4483;48.622;9.230;2022-12-18T04:58:43;99113.13;;;-11.56;78.17
8894;BME280;4483;48.622;9.230;2022-12-18T05:01:10;99117.03;;;-11.59;77.53
8894;BME280;4483;48.622;9.230;2022-12-18T05:03:37;99115.13;;;-11.63;77.97
8894;BME280;4483;48.622;9.230;2022-12-18T05:06:06;99103.94;;;-11.70;78.25
8894;BME280;4483;48.622;9.230;2022-12-18T05:08:33;99109.66;;;-11.71;77.74
8894;BME280;4483;48.622;9.230;2022-12-18T05:11:01;99112.16;;;-11.71;76.86
8894;BME280;4483;48.622;9.230;2022-12-18T05:13:28;99105.44;;;-11.72;78.48
8894;BME280;4483;48.622;9.230;2022-12-18T05:15:55;99112.16;;;-11.71;77.44
8894;BME280;4483;48.622;9.230;2022-12-18T05:18:22;99104.59;;;-11.72;78.26
8894;BME280;4483;48.622;9.230;2022-12-18T05:20:49;99109.34;;;-11.75;77.09
8894;BME280;4483;48.622;9.230;2022-12-18T05:23:18;99121.69;;;-11.77;76.97
8894;BME280;4483;48.622;9.230;2022-12-18T05:25:52;99106.13;;;-11.74;77.40
8894;BME280;4483;48.622;9.230;2022-12-18T05:28:24;99105.25;;;-11.75;78.36
8894;BME280;4483;48.622;9.230;2022-12-18T05:30:57;99111.97;;;-11.74;76.86
8894;BME280;4483;48.622;9.230;2022-12-18T05:33:25;99112.06;;;-11.72;77.52
8894;BME280;4483;48.622;9.230;2022-12-18T05:35:54;99116.94;;;-11.74;77.27
8894;BME280;4483;48.622;9.230;2022-12-18T05:38:25;99124.59;;;-11.71;78.39
8894;BME280;4483;48.622;9.230;2022-12-18T05:40:53;99120.16;;;-11.75;77.73
8894;BME280;4483;48.622;9.230;2022-12-18T05:43:20;99121.78;;;-11.75;76.52
8894;BME280;4483;48.622;9.230;2022-12-18T05:45:48;99128.28;;;-11.77;76.66
8894;BME280;4483;48.622;9.230;2022-12-18T05:48:15;99124.19;;;-11.77;77.93
8894;BME280;4483;48.622;9.230;2022-12-18T05:50:44;99126.47;;;-11.80;77.54
8894;BME280;4483;48.622;9.230;2022-12-18T05:53:11;99125.41;;;-11.83;77.39
8894;BME280;4483;48.622;9.230;2022-12-18T05:55:41;99121.28;;;-11.83;77.36
8894;BME280;4483;48.622;9.230;2022-12-18T05:58:09;99118.69;;;-11.84;76.40
8894;BME280;4483;48.622;9.230;2022-12-18T06:00:38;99121.63;;;-11.90;77.43
8894;BME280;4483;48.622;9.230;2022-12-18T06:03:05;99122.22;;;-11.94;77.15
8894;BME280;4483;48.622;9.230;2022-12-18T06:05:34;99119.63;;;-11.95;77.97
8894;BME280;4483;48.622;9.230;2022-12-18T06:08:02;99119.50;;;-11.97;76.82
8894;BME280;4483;48.622;9.230;2022-12-18T06:10:29;99114.25;;;-12.01;77.25
8894;BME280;4483;48.622;9.230;2022-12-18T06:12:57;99119.97;;;-12.02;77.36
8894;BME280;4483;48.622;9.230;2022-12-18T06:15:24;99119.97;;;-12.02;76.77
8894;BME280;4483;48.622;9.230;2022-12-18T06:17:51;99126.78;;;-12.00;77.13
8894;BME280;4483;48.622;9.230;2022-12-18T06:20:18;99133.47;;;-11.99;77.02
8894;BME280;4483;48.622;9.230;2022-12-18T06:22:44;99135.75;;;-12.02;76.48
8894;BME280;4483;48.622;9.230;2022-12-18T06:25:11;99137.16;;;-12.05;76.38
8894;BME280;4483;48.622;9.230;2022-12-18T06:27:38;99141.06;;;-12.09;76.89
8894;BME280;4483;48.622;9.230;2022-12-18T06:30:07;99134.34;;;-12.10;76.92
8894;BME280;4483;48.622;9.230;2022-12-18T06:32:34;99134.34;;;-12.10;77.13
8894;BME280;4483;48.622;9.230;2022-12-18T06:35:01;99134.34;;;-12.10;76.70
8894;BME280;4483;48.622;9.230;2022-12-18T06:37:27;99133.28;;;-12.13;77.07
8894;BME280;4483;48.622;9.230;2022-12-18T06:39:54;99142.34;;;-12.14;76.28
8894;BME280;4483;48.622;9.230;2022-12-18T06:42:23;99160.53;;;-12.15;77.09
8894;BME280;4483;48.622;9.230;2022-12-18T06:44:49;99152.97;;;-12.16;76.46
8894;BME280;4483;48.622;9.230;2022-12-18T06:47:17;99165.50;;;-12.15;76.42
8894;BME280;4483;48.622;9.230;2022-12-18T06:49:44;99162.22;;;-12.14;76.97
8894;BME280;4483;48.622;9.230;2022-12-18T06:52:11;99166.25;;;-12.16;76.23
8894;BME280;4483;48.622;9.230;2022-12-18T06:54:37;99170.66;;;-12.12;77.22
8894;BME280;4483;48.622;9.230;2022-12-18T06:57:04;99172.41;;;-12.11;76.48
8894;BME280;4483;48.622;9.230;2022-12-18T06:59:31;99143.91;;;-12.16;76.25
8894;BME280;4483;48.622;9.230;2022-12-18T07:01:57;99160.72;;;-12.12;76.03
8894;BME280;4483;48.622;9.230;2022-12-18T07:04:28;99160.63;;;-12.13;76.80
8894;BME280;4483;48.622;9.230;2022-12-18T07:06:55;99171.22;;;-12.16;76.55
8894;BME280;4483;48.622;9.230;2022-12-18T07:09:22;99179.41;;;-12.17;76.91
8894;BME280;4483;48.622;9.230;2022-12-18T07:11:49;99176.50;;;-12.23;76.93
8894;BME280;4483;48.622;9.230;2022-12-18T07:14:15;99183.31;;;-12.20;76.51
8894;BME280;4483;48.622;9.230;2022-12-18T07:16:42;99183.22;;;-12.22;75.75
8894;BME280;4483;48.622;9.230;2022-12-18T07:19:09;99189.25;;;-12.18;76.52
8894;BME280;4483;48.622;9.230;2022-12-18T07:21:36;99188.63;;;-12.16;76.06
8894;BME280;4483;48.622;9.230;2022-12-18T07:24:04;99189.00;;;-12.10;76.94
8894;BME280;4483;48.622;9.230;2022-12-18T07:26:31;99183.31;;;-12.09;76.49
8894;BME280;4483;48.622;9.230;2022-12-18T07:28:58;99195.91;;;-12.06;76.21
8894;BME280;4483;48.622;9.230;2022-12-18T07:31:25;99199.38;;;-12.04;76.46
8894;BME280;4483;48.622;9.230;2022-12-18T07:33:52;99189.44;;;-12.04;76.18
8894;BME280;4483;48.622;9.230;2022-12-18T07:36:19;99197.59;;;-11.93;76.50
8894;BME280;4483;48.622;9.230;2022-12-18T07:38:48;99192.41;;;-11.85;75.34
8894;BME280;4483;48.622;9.230;2022-12-18T07:41:16;99189.34;;;-11.81;75.57
8894;BME280;4483;48.622;9.230;2022-12-18T07:43:43;99197.53;;;-11.70;75.40
8894;BME280;4483;48.622;9.230;2022-12-18T07:46:11;99195.34;;;-11.28;76.79
8894;BME280;4483;48.622;9.230;2022-12-18T07:48:38;99187.66;;;-10.67;76.56
8894;BME280;4483;48.622;9.230;2022-12-18T07:51:06;99187.38;;;-10.05;75.81
8894;BME280;4483;48.622;9.230;2022-12-18T07:53:33;99183.63;;;-9.43;75.12
8894;BME280;4483;48.622;9.230;2022-12-18T07:56:04;99178.81;;;-8.82;74.34
8894;BME280;4483;48.622;9.230;2022-12-18T07:58:33;99179.41;;;-8.26;73.79
8894;BME280;4483;48.622;9.230;2022-12-18T08:01:03;99183.69;;;-7.77;71.61
8894;BME280;4483;48.622;9.230;2022-12-18T08:03:30;99181.34;;;-7.42;70.74
8894;BME280;4483;48.622;9.230;2022-12-18T08:05:59;99186.59;;;-7.03;70.48
8894;BME280;4483;48.622;9.230;2022-12-18T08:08:25;99176.13;;;-6.61;69.79
8894;BME280;4483;48.622;9.230;2022-12-18T08:10:52;99172.88;;;-6.24;69.32
8894;BME280;4483;48.622;9.230;2022-12-18T08:13:20;99174.06;;;-5.79;68.90
8894;BME280;4483;48.622;9.230;2022-12-18T08:15:55;99176.66;;;-5.39;67.38
8894;BME280;4483;48.622;9.230;2022-12-18T08:18:22;99180.69;;;-5.03;66.70
8894;BME280;4483;48.622;9.230;2022-12-18T08:20:49;99179.91;;;-4.61;66.01
8894;BME280;4483;48.622;9.230;2022-12-18T08:23:15;99173.16;;;-4.19;65.37
8894;BME280;4483;48.622;9.230;2022-12-18T08:25:42;99174.78;;;-3.77;64.62
8894;BME280;4483;48.622;9.230;2022-12-18T08:28:09;99173.63;;;-3.39;63.25
8894;BME280;4483;48.622;9.230;2022-12-18T08:30:37;99168.88;;;-3.07;62.91
8894;BME280;4483;48.622;9.230;2022-12-18T08:33:04;99165.75;;;-2.74;62.51
8894;BME280;4483;48.622;9.230;2022-12-18T08:35:34;99160.19;;;-2.38;60.72
8894;BME280;4483;48.622;9.230;2022-12-18T08:38:01;99169.72;;;-2.03;60.94
8894;BME280;4483;48.622;9.230;2022-12-18T08:40:28;99162.09;;;-1.76;59.59
8894;BME280;4483;48.622;9.230;2022-12-18T08:42:54;99165.28;;;-1.52;58.79
8894;BME280;4483;48.622;9.230;2022-12-18T08:45:39;99162.75;;;-1.21;58.77
8894;BME280;4483;48.622;9.230;2022-12-18T08:48:06;99163.56;;;-0.90;57.52
8894;BME280;4483;48.622;9.230;2022-12-18T08:50:33;99151.66;;;-0.60;57.36
8894;BME280;4483;48.622;9.230;2022-12-18T08:53:00;99149.81;;;-0.33;57.13
8894;BME280;4483;48.622;9.230;2022-12-18T08:55:27;99153.75;;;-0.07;55.66
8894;BME280;4483;48.622;9.230;2022-12-18T08:57:54;99152.63;;;0.19;55.29
8894;BME280;4483;48.622;9.230;2022-12-18T09:00:20;99156.56;;;0.45;54.47
8894;BME280;4483;48.622;9.230;2022-12-18T09:02:48;99154.59;;;0.74;52.96
8894;BME280;4483;48.622;9.230;2022-12-18T09:05:15;99142.88;;;0.80;51.32
8894;BME280;4483;48.622;9.230;2022-12-18T09:07:42;99139.78;;;0.95;51.21
8894;BME280;4483;48.622;9.230;2022-12-18T09:10:09;99137.41;;;1.04;51.37
8894;BME280;4483;48.622;9.230;2022-12-18T09:12:35;99131.00;;;1.27;51.28
8894;BME280;4483;48.622;9.230;2022-12-18T09:15:02;99127.09;;;1.46;49.48
8894;BME280;4483;48.622;9.230;2022-12-18T09:17:29;99127.50;;;1.74;49.42
8894;BME280;4483;48.622;9.230;2022-12-18T09:19:57;99126.22;;;2.03;49.95
8894;BME280;4483;48.622;9.230;2022-12-18T09:22:23;99126.53;;;2.25;47.45
8894;BME280;4483;48.622;9.230;2022-12-18T09:24:50;99128.53;;;2.51;48.20
8894;BME280;4483;48.622;9.230;2022-12-18T09:27:17;99124.59;;;2.80;48.49
8894;BME280;4483;48.622;9.230;2022-12-18T09:29:43;99112.22;;;3.14;47.42
8894;BME280;4483;48.622;9.230;2022-12-18T09:32:10;99114.09;;;3.34;45.52
8894;BME280;4483;48.622;9.230;2022-12-18T09:34:36;99115.84;;;3.41;46.12
8894;BME280;4483;48.622;9.230;2022-12-18T09:37:04;99101.44;;;3.46;46.08
8894;BME280;4483;48.622;9.230;2022-12-18T09:39:31;99111.63;;;3.45;44.29
8894;BME280;4483;48.622;9.230;2022-12-18T09:41:58;99113.28;;;3.40;43.75
8894;BME280;4483;48.622;9.230;2022-12-18T09:44:26;99105.66;;;3.40;43.69
8894;BME280;4483;48.622;9.230;2022-12-18T09:46:59;99113.34;;;3.50;42.30
8894;BME280;4483;48.622;9.230;2022-12-18T09:49:30;99110.16;;;3.77;43.87
8894;BME280;4483;48.622;9.230;2022-12-18T09:52:04;99104.44;;;4.16;44.40
8894;BME280;4483;48.622;9.230;2022-12-18T09:54:45;99102.88;;;4.60;43.44
8894;BME280;4483;48.622;9.230;2022-12-18T09:57:14;99090.22;;;5.06;43.33
8894;BME280;4483;48.622;9.230;2022-12-18T09:59:42;99086.81;;;5.42;42.09
8894;BME280;4483;48.622;9.230;2022-12-18T10:02:18;99080.00;;;5.58;41.40
8894;BME280;4483;48.622;9.230;2022-12-18T10:04:55;99088.50;;;5.57;39.84
8894;BME280;4483;48.622;9.230;2022-12-18T10:07:33;99097.06;;;5.53;38.64
8894;BME280;4483;48.622;9.230;2022-12-18T10:10:11;99086.81;;;5.50;39.66
8894;BME280;4483;48.622;9.230;2022-12-18T10:12:46;99090.22;;;5.58;39.85
8894;BME280;4483;48.622;9.230;2022-12-18T10:15:24;99088.50;;;5.70;39.33
8894;BME280;4483;48.622;9.230;2022-12-18T10:17:57;99083.38;;;5.94;40.02
8894;BME280;4483;48.622;9.230;2022-12-18T10:20:33;99085.88;;;6.13;38.67
8894;BME280;4483;48.622;9.230;2022-12-18T10:23:09;99090.91;;;6.37;39.08
8894;BME280;4483;48.622;9.230;2022-12-18T10:25:48;99090.81;;;6.55;38.37
8894;BME280;4483;48.622;9.230;2022-12-18T10:28:18;99083.09;;;6.68;38.11
8894;BME280;4483;48.622;9.230;2022-12-18T10:30:45;99080.41;;;6.83;37.50
8894;BME280;4483;48.622;9.230;2022-12-18T10:33:17;99078.63;;;6.99;36.56
8894;BME280;4483;48.622;9.230;2022-12-18T10:35:44;99076.00;;;7.06;37.17
8894;BME280;4483;48.622;9.230;2022-12-18T10:38:24;99069.06;;;7.19;37.14
8894;BME280;4483;48.622;9.230;2022-12-18T10:40:54;99065.47;;;7.43;37.36
8894;BME280;4483;48.622;9.230;2022-12-18T10:43:24;99070.38;;;7.64;37.00
8894;BME280;4483;48.622;9.230;2022-12-18T10:46:05;99078.88;;;7.67;36.80
8894;BME280;4483;48.622;9.230;2022-12-18T10:48:41;99073.09;;;7.49;36.67
8894;BME280;4483;48.622;9.230;2022-12-18T10:51:20;99074.94;;;7.32;36.70
8894;BME280;4483;48.622;9.230;2022-12-18T10:53:52;99079.28;;;7.22;37.20
8894;BME280;4483;48.622;9.230;2022-12-18T10:56:22;99069.16;;;7.10;37.29
8894;BME280;4483;48.622;9.230;2022-12-18T10:58:56;99072.59;;;7.04;37.20
8894;BME280;4483;48.622;9.230;2022-12-18T11:01:23;99077.72;;;7.01;37.20
8894;BME280;4483;48.622;9.230;2022-12-18T11:04:00;99082.03;;;6.96;37.34
8894;BME280;4483;48.622;9.230;2022-12-18T11:06:26;99070.97;;;6.93;37.26
8894;BME280;4483;48.622;9.230;2022-12-18T11:08:58;99077.81;;;6.94;36.86
8894;BME280;4483;48.622;9.230;2022-12-18T11:11:26;99063.38;;;6.78;37.10
8894;BME280;4483;48.622;9.230;2022-12-18T11:14:01;99057.59;;;6.44;37.15
8894;BME280;4483;48.622;9.230;2022-12-18T11:16:32;99064.41;;;6.48;37.84
8894;BME280;4483;48.622;9.230;2022-12-18T11:19:17;99048.94;;;6.65;37.72
8894;BME280;4483;48.622;9.230;2022-12-18T11:21:46;99046.34;;;6.74;37.68
8894;BME280;4483;48.622;9.230;2022-12-18T11:24:20;99037.72;;;6.84;37.52
8894;BME280;4483;48.622;9.230;2022-12-18T11:26:50;99046.88;;;7.17;38.20
8894;BME280;4483;48.622;9.230;2022-12-18T11:29:18;99030.41;;;7.42;37.95
8894;BME280;4483;48.622;9.230;2022-12-18T11:31:48;99024.16;;;7.70;38.05
8894;BME280;4483;48.622;9.230;2022-12-18T11:34:21;99022.19;;;7.94;37.54
8894;BME280;4483;48.622;9.230;2022-12-18T11:36:49;99034.81;;;8.12;37.64
8894;BME280;4483;48.622;9.230;2022-12-18T11:39:20;99021.88;;;8.20;37.29
8894;BME280;4483;48.622;9.230;2022-12-18T11:41:52;99021.06;;;8.17;37.85
8894;BME280;4483;48.622;9.230;2022-12-18T11:44:46;99024.78;;;7.90;37.74
8894;BME280;4483;48.622;9.230;2022-12-18T11:47:21;99019.81;;;7.78;37.60
8894;BME280;4483;48.622;9.230;2022-12-18T11:49:51;99012.16;;;7.72;38.02
8894;BME280;4483;48.622;9.230;2022-12-18T11:52:22;99007.09;;;7.66;38.32
8894;BME280;4483;48.622;9.230;2022-12-18T11:54:51;99010.69;;;7.50;38.12
8894;BME280;4483;48.622;9.230;2022-12-18T11:57:29;99011.59;;;7.44;38.69
8894;BME280;4483;48.622;9.230;2022-12-18T12:00:03;99016.69;;;7.47;38.90
8894;BME280;4483;48.622;9.230;2022-12-18T12:02:47;99020.09;;;7.48;38.80
8894;BME280;4483;48.622;9.230;2022-12-18T12:05:24;99010.81;;;7.35;39.09
8894;BME280;4483;48.622;9.230;2022-12-18T12:07:59;99009.28;;;7.17;39.44
8894;BME280;4483;48.622;9.230;2022-12-18T12:10:38;98998.28;;;7.01;39.64
8894;BME280;4483;48.622;9.230;2022-12-18T12:13:23;98989.03;;;6.85;40.48
8894;BME280;4483;48.622;9.230;2022-12-18T12:16:03;98993.44;;;6.70;40.24
8894;BME280;4483;48.622;9.230;2022-12-18T12:18:42;98988.47;;;6.41;41.44
8894;BME280;4483;48.622;9.230;2022-12-18T12:21:18;98990.34;;;6.17;41.09
8894;BME280;4483;48.622;9.230;2022-12-18T12:23:51;98993.00;;;5.92;42.75
8894;BME280;4483;48.622;9.230;2022-12-18T12:26:26;98991.34;;;5.69;42.67
8894;BME280;4483;48.622;9.230;2022-12-18T12:29:07;98978.66;;;5.30;43.40
8894;BME280;4483;48.622;9.230;2022-12-18T12:31:51;98987.22;;;4.83;43.87
8894;BME280;4483;48.622;9.230;2022-12-18T12:34:24;98979.53;;;4.44;44.44
8894;BME280;4483;48.622;9.230;2022-12-18T12:37:09;98982.81;;;4.05;44.96
8894;BME280;4483;48.622;9.230;2022-12-18T12:39:40;98992.06;;;3.79;45.51
8894;BME280;4483;48.622;9.230;2022-12-18T12:42:14;98991.13;;;3.61;46.38
8894;BME280;4483;48.622;9.230;2022-12-18T12:45:06;98995.28;;;3.45;46.96
8894;BME280;4483;48.622;9.230;2022-12-18T12:47:36;98996.00;;;3.26;47.23
8894;BME280;4483;48.622;9.230;2022-12-18T12:50:12;98989.16;;;3.16;47.65
8894;BME280;4483;48.622;9.230;2022-12-18T12:52:42;98996.78;;;3.15;48.59
8894;BME280;4483;48.622;9.230;2022-12-18T12:55:14;98996.75;;;3.10;48.06
8894;BME280;4483;48.622;9.230;2022-12-18T12:57:45;99007.75;;;3.04;48.57
8894;BME280;4483;48.622;9.230;2022-12-18T13:00:18;99013.63;;;2.96;48.83
8894;BME280;4483;48.622;9.230;2022-12-18T13:02:51;99007.59;;;2.86;50.09
8894;BME280;4483;48.622;9.230;2022-12-18T13:05:24;99005.84;;;2.82;49.67
8894;BME280;4483;48.622;9.230;2022-12-18T13:07:56;99009.25;;;2.80;50.25
8894;BME280;4483;48.622;9.230;2022-12-18T13:10:32;99001.56;;;2.78;50.53
8894;BME280;4483;48.622;9.230;2022-12-18T13:13:01;99010.94;;;2.76;51.12
8894;BME280;4483;48.622;9.230;2022-12-18T13:15:38;99010.06;;;2.77;51.54
8894;BME280;4483;48.622;9.230;2022-12-18T13:18:14;99011.03;;;2.90;51.82
8894;BME280;4483;48.622;9.230;2022-12-18T13:20:42;99018.63;;;2.87;51.88
8894;BME280;4483;48.622;9.230;2022-12-18T13:23:33;99023.66;;;2.81;51.84
8894;BME280;4483;48.622;9.230;2022-12-18T13:26:31;99026.16;;;2.73;53.26
8894;BME280;4483;48.622;9.230;2022-12-18T13:29:00;99018.44;;;2.66;53.19
8894;BME280;4483;48.622;9.230;2022-12-18T13:31:59;99001.31;;;2.48;52.97
8894;BME280;4483;48.622;9.230;2022-12-18T13:34:27;99005.28;;;2.22;53.18
8894;BME280;4483;48.622;9.230;2022-12-18T13:36:56;99014.50;;;2.13;54.48